Time;durP1;ratioP1;P1;durP2;ratioP2;P2;SDS_P1;SDS_P2;PMS_P1;PMS_P2;Temp;Humidity;BMP_temperature;BMP_pressure;BME280_temperature;BME280_humidity;BME280_pressure;Samples;Min_cycle;Max_cycle;Signal;HPM_P1;HPM_P2
2022/03/02 00:00:44;;;;;;;46.25;25.73;;;5.00;99.90;;;;;;5020074;28;20560;-91
2022/03/02 00:03:09;;;;;;;49.63;27.60;;;5.00;99.90;;;;;;5019846;28;20177;-91
2022/03/02 00:05:36;;;;;;;52.40;27.48;;;5.00;99.90;;;;;;5019807;28;20485;-90
2022/03/02 00:08:03;;;;;;;49.63;27.83;;;4.90;99.90;;;;;;5020005;28;20393;-91
2022/03/02 00:10:29;;;;;;;51.65;26.73;;;5.00;99.90;;;;;;5019927;28;20133;-90
2022/03/02 00:12:55;;;;;;;44.70;25.10;;;4.90;99.90;;;;;;5019940;28;20072;-92
2022/03/02 00:15:21;;;;;;;50.67;27.75;;;4.90;99.90;;;;;;5020142;28;20045;-91
2022/03/02 00:17:46;;;;;;;49.03;27.63;;;4.90;99.90;;;;;;5019846;28;20045;-91
2022/03/02 00:20:12;;;;;;;49.00;28.17;;;4.90;99.90;;;;;;5019521;28;20053;-91
2022/03/02 00:22:39;;;;;;;49.33;27.25;;;4.90;99.90;;;;;;5019671;28;20049;-91
2022/03/02 00:25:06;;;;;;;50.13;27.80;;;4.90;99.90;;;;;;5019534;28;20045;-90
2022/03/02 00:27:31;;;;;;;51.45;28.77;;;4.90;99.90;;;;;;5019473;28;20048;-90
2022/03/02 00:29:57;;;;;;;50.05;26.52;;;4.90;99.90;;;;;;5019685;28;20049;-91
2022/03/02 00:32:22;;;;;;;50.50;27.83;;;4.80;99.90;;;;;;5019842;28;20504;-92
2022/03/02 00:34:48;;;;;;;55.60;30.42;;;4.80;99.90;;;;;;5019115;28;20164;-91
2022/03/02 00:37:17;;;;;;;61.40;30.13;;;4.80;99.90;;;;;;5019275;28;20094;-91
2022/03/02 00:39:43;;;;;;;59.35;30.42;;;4.80;99.90;;;;;;5019550;28;20128;-92
2022/03/02 00:42:09;;;;;;;63.35;32.33;;;4.80;99.90;;;;;;5019522;28;20512;-91
2022/03/02 00:44:35;;;;;;;60.65;31.70;;;4.80;99.90;;;;;;5019048;28;20087;-91
2022/03/02 00:47:02;;;;;;;55.00;31.02;;;4.80;99.90;;;;;;5019082;28;20042;-92
2022/03/02 00:49:28;;;;;;;59.88;30.70;;;4.80;99.90;;;;;;5019014;28;20056;-91
2022/03/02 00:51:55;;;;;;;67.88;32.22;;;4.80;99.90;;;;;;5019073;28;20428;-92
2022/03/02 00:54:21;;;;;;;60.80;30.92;;;4.80;99.90;;;;;;5019286;28;20041;-92
2022/03/02 00:56:47;;;;;;;67.60;31.77;;;4.80;99.90;;;;;;5019094;28;20041;-92
2022/03/02 00:59:12;;;;;;;58.05;30.33;;;4.80;99.90;;;;;;5017986;28;20073;-91
2022/03/02 01:01:38;;;;;;;67.03;31.60;;;4.80;99.90;;;;;;5018664;28;20041;-91
2022/03/02 01:04:07;;;;;;;64.57;32.58;;;4.90;99.90;;;;;;5018833;28;20128;-91
2022/03/02 01:06:33;;;;;;;63.38;31.20;;;4.80;99.90;;;;;;5018938;28;20053;-91
2022/03/02 01:08:58;;;;;;;60.55;29.48;;;4.80;99.90;;;;;;5018471;28;20048;-91
2022/03/02 01:11:24;;;;;;;58.33;30.23;;;4.80;99.90;;;;;;5018662;28;20045;-91
2022/03/02 01:13:50;;;;;;;69.05;31.38;;;4.80;99.90;;;;;;5018806;28;20049;-91
2022/03/02 01:16:15;;;;;;;64.40;31.63;;;4.80;99.90;;;;;;5018735;28;20378;-91
2022/03/02 01:18:41;;;;;;;61.53;30.10;;;4.80;99.90;;;;;;5018746;28;20050;-91
2022/03/02 01:21:07;;;;;;;68.32;31.65;;;4.90;99.90;;;;;;5018684;28;20049;-91
2022/03/02 01:23:34;;;;;;;65.53;32.40;;;4.90;99.90;;;;;;5018440;28;20140;-92
2022/03/02 01:25:59;;;;;;;57.70;29.15;;;4.90;99.90;;;;;;5018609;28;20400;-91
2022/03/02 01:28:25;;;;;;;67.50;30.25;;;4.80;99.90;;;;;;5018204;28;20496;-91
2022/03/02 01:30:51;;;;;;;66.70;30.42;;;4.90;99.90;;;;;;5018343;28;20095;-91
2022/03/02 01:33:17;;;;;;;70.05;32.15;;;4.80;99.90;;;;;;5017862;28;20045;-91
2022/03/02 01:35:43;;;;;;;67.50;30.73;;;4.80;99.90;;;;;;5018099;28;20048;-90
2022/03/02 01:38:08;;;;;;;70.38;31.02;;;4.80;99.90;;;;;;5018348;28;20052;-91
2022/03/02 01:40:34;;;;;;;75.53;33.95;;;4.80;99.90;;;;;;5018374;28;20072;-91
2022/03/02 01:43:00;;;;;;;69.68;30.42;;;4.80;99.90;;;;;;5018619;28;20045;-91
2022/03/02 01:45:26;;;;;;;72.78;32.53;;;4.80;99.90;;;;;;5018100;28;20494;-90
2022/03/02 01:47:51;;;;;;;66.55;30.80;;;4.80;99.90;;;;;;5017674;28;20067;-90
2022/03/02 01:50:18;;;;;;;70.95;31.08;;;4.80;99.90;;;;;;5018015;28;20191;-90
2022/03/02 01:52:44;;;;;;;62.17;27.17;;;4.80;99.90;;;;;;5017974;28;20041;-90
2022/03/02 01:55:11;;;;;;;75.18;31.67;;;4.80;99.90;;;;;;5017959;28;20037;-90
2022/03/02 01:57:37;;;;;;;68.07;31.52;;;4.80;99.90;;;;;;5017793;28;20041;-90
2022/03/02 02:00:13;;;;;;;73.03;31.83;;;4.80;99.90;;;;;;5017686;28;20041;-90
2022/03/02 02:02:40;;;;;;;72.50;31.25;;;4.80;99.90;;;;;;5017435;28;20474;-91
2022/03/02 02:05:06;;;;;;;75.05;31.10;;;4.80;99.90;;;;;;5017759;28;20063;-90
2022/03/02 02:07:32;;;;;;;71.38;32.65;;;4.70;99.90;;;;;;5017803;28;20477;-90
2022/03/02 02:09:58;;;;;;;71.18;32.17;;;4.70;99.90;;;;;;5017246;28;20049;-90
2022/03/02 02:12:24;;;;;;;71.47;32.85;;;4.70;99.90;;;;;;5017250;28;20048;-89
2022/03/02 02:14:50;;;;;;;68.80;30.35;;;4.70;99.90;;;;;;5017417;28;20092;-90
2022/03/02 02:17:16;;;;;;;71.43;31.15;;;4.70;99.90;;;;;;5017349;28;20072;-91
2022/03/02 02:19:42;;;;;;;67.88;30.45;;;4.70;99.90;;;;;;5017704;28;20045;-91
2022/03/02 02:22:07;;;;;;;72.70;31.05;;;4.60;99.90;;;;;;5017516;28;20045;-91
2022/03/02 02:24:34;;;;;;;76.82;31.90;;;4.70;99.90;;;;;;5017321;28;20091;-90
2022/03/02 02:27:01;;;;;;;68.65;30.48;;;4.60;99.90;;;;;;5017231;28;20128;-91
2022/03/02 02:29:29;;;;;;;66.43;31.55;;;4.60;99.90;;;;;;5017080;28;20492;-91
2022/03/02 02:31:56;;;;;;;64.10;29.58;;;4.70;99.90;;;;;;5017193;28;20048;-91
2022/03/02 02:34:22;;;;;;;66.43;28.95;;;4.60;99.90;;;;;;5016822;28;20141;-91
2022/03/02 02:36:48;;;;;;;60.92;28.00;;;4.60;99.90;;;;;;5017096;28;20128;-90
2022/03/02 02:39:14;;;;;;;63.20;31.17;;;4.50;99.90;;;;;;5017055;28;20041;-91
2022/03/02 02:41:40;;;;;;;67.47;31.35;;;4.50;99.90;;;;;;5016982;28;20080;-91
2022/03/02 02:44:06;;;;;;;68.22;30.00;;;4.50;99.90;;;;;;5017033;28;20080;-91
2022/03/02 02:46:32;;;;;;;70.85;33.03;;;4.50;99.90;;;;;;5017040;28;20072;-90
2022/03/02 02:48:58;;;;;;;70.95;28.77;;;4.50;99.90;;;;;;5016939;28;20099;-91
2022/03/02 02:51:23;;;;;;;66.15;31.70;;;4.50;99.90;;;;;;5016777;28;20124;-90
2022/03/02 02:53:49;;;;;;;62.72;29.25;;;4.50;99.90;;;;;;5017089;28;20049;-91
2022/03/02 02:56:14;;;;;;;69.05;31.55;;;4.50;99.90;;;;;;5016712;28;20037;-90
2022/03/02 02:58:40;;;;;;;73.97;28.15;;;4.50;99.90;;;;;;5016560;28;20056;-91
2022/03/02 03:01:06;;;;;;;73.32;29.48;;;4.40;99.90;;;;;;5016489;28;20103;-90
2022/03/02 03:03:32;;;;;;;73.05;32.55;;;4.40;99.90;;;;;;5016868;28;20056;-90
2022/03/02 03:05:57;;;;;;;73.70;31.73;;;4.40;99.90;;;;;;5016459;28;20397;-90
2022/03/02 03:08:23;;;;;;;67.70;30.30;;;4.30;99.90;;;;;;5016998;28;20041;-91
2022/03/02 03:10:50;;;;;;;71.45;30.52;;;4.30;99.90;;;;;;5016766;28;20049;-91
2022/03/02 03:13:17;;;;;;;66.97;29.05;;;4.30;99.90;;;;;;5016552;28;20053;-90
2022/03/02 03:15:43;;;;;;;73.20;30.88;;;4.30;99.90;;;;;;5016326;28;20128;-90
2022/03/02 03:18:10;;;;;;;64.88;30.83;;;4.20;99.90;;;;;;5016161;28;20037;-91
2022/03/02 03:20:36;;;;;;;67.85;30.55;;;4.20;99.90;;;;;;5016213;28;20064;-91
2022/03/02 03:23:03;;;;;;;65.75;30.05;;;4.20;99.90;;;;;;5015888;28;20136;-91
2022/03/02 03:25:29;;;;;;;66.25;29.75;;;4.20;99.90;;;;;;5015966;28;20052;-90
2022/03/02 03:27:55;;;;;;;64.03;31.85;;;4.10;99.90;;;;;;5015960;28;20568;-91
2022/03/02 03:30:23;;;;;;;64.22;30.80;;;4.10;99.90;;;;;;5016025;28;20072;-90
2022/03/02 03:32:50;;;;;;;64.38;32.15;;;4.10;99.90;;;;;;5016357;28;20095;-90
2022/03/02 03:35:17;;;;;;;63.88;30.40;;;4.10;99.90;;;;;;5015934;28;20053;-90
2022/03/02 03:37:44;;;;;;;58.05;28.15;;;4.10;99.90;;;;;;5016203;28;20092;-90
2022/03/02 03:40:12;;;;;;;58.40;29.27;;;4.10;99.90;;;;;;5016129;28;20045;-90
2022/03/02 03:42:39;;;;;;;61.72;29.02;;;4.00;99.90;;;;;;5016143;28;20077;-90
2022/03/02 03:45:06;;;;;;;56.03;27.85;;;4.00;99.90;;;;;;5016024;28;20049;-91
2022/03/02 03:47:32;;;;;;;64.47;31.65;;;4.00;99.90;;;;;;5016189;28;20051;-90
2022/03/02 03:49:57;;;;;;;70.85;33.33;;;4.00;99.90;;;;;;5016036;28;20049;-90
2022/03/02 03:52:23;;;;;;;56.97;29.80;;;4.00;99.90;;;;;;5016047;28;20481;-90
2022/03/02 03:54:49;;;;;;;68.43;35.63;;;4.00;99.90;;;;;;5015978;28;20057;-89
2022/03/02 03:57:15;;;;;;;66.00;34.38;;;4.00;99.90;;;;;;5015650;28;20507;-90
2022/03/02 03:59:40;;;;;;;66.18;32.53;;;4.00;99.90;;;;;;5015939;28;20140;-89
2022/03/02 04:02:06;;;;;;;65.05;32.55;;;3.90;99.90;;;;;;5015799;28;20053;-89
2022/03/02 04:04:32;;;;;;;62.85;33.13;;;4.00;99.90;;;;;;5015801;28;20113;-90
2022/03/02 04:06:58;;;;;;;64.97;33.15;;;3.90;99.90;;;;;;5015932;28;20045;-90
2022/03/02 04:09:24;;;;;;;74.55;32.90;;;3.90;99.90;;;;;;5015495;28;20060;-90
2022/03/02 04:11:50;;;;;;;63.00;32.92;;;3.90;99.90;;;;;;5015879;28;20056;-90
2022/03/02 04:14:17;;;;;;;60.58;29.75;;;3.90;99.90;;;;;;5016365;28;20044;-90
2022/03/02 04:16:42;;;;;;;62.90;30.05;;;3.90;99.90;;;;;;5016077;28;20049;-89
2022/03/02 04:19:08;;;;;;;56.92;27.70;;;3.90;99.90;;;;;;5015948;28;20053;-90
2022/03/02 04:21:34;;;;;;;57.65;30.63;;;3.90;99.90;;;;;;5015490;28;20116;-90
2022/03/02 04:24:00;;;;;;;53.45;28.83;;;3.80;99.90;;;;;;5015804;28;20041;-90
2022/03/02 04:26:26;;;;;;;58.30;29.08;;;3.80;99.90;;;;;;5015478;28;20530;-90
2022/03/02 04:28:52;;;;;;;61.10;31.33;;;3.80;99.90;;;;;;5015422;28;20044;-90
2022/03/02 04:31:17;;;;;;;57.08;28.70;;;3.80;99.90;;;;;;5015654;28;20045;-90
2022/03/02 04:33:43;;;;;;;58.78;30.83;;;3.80;99.90;;;;;;5015775;28;20057;-90
2022/03/02 04:36:09;;;;;;;53.72;28.95;;;3.80;99.90;;;;;;5019369;28;20053;-90
2022/03/02 04:38:36;;;;;;;62.53;28.95;;;3.80;99.90;;;;;;5019421;28;20103;-90
2022/03/02 04:41:02;;;;;;;57.47;29.23;;;3.70;99.90;;;;;;5019292;28;20485;-90
2022/03/02 04:43:28;;;;;;;62.53;31.30;;;3.70;99.90;;;;;;5019051;28;20045;-89
2022/03/02 04:45:54;;;;;;;54.25;29.40;;;3.70;99.90;;;;;;5019198;28;20042;-90
2022/03/02 04:48:20;;;;;;;58.28;31.35;;;3.60;99.90;;;;;;5019012;28;20378;-90
2022/03/02 04:50:45;;;;;;;56.63;32.83;;;3.60;99.90;;;;;;5018928;28;20049;-90
2022/03/02 04:53:14;;;;;;;59.15;30.65;;;3.60;99.90;;;;;;5019104;28;20049;-90
2022/03/02 04:55:40;;;;;;;61.83;30.92;;;3.50;99.90;;;;;;5018788;28;20077;-90
2022/03/02 04:58:05;;;;;;;57.72;31.48;;;3.50;99.90;;;;;;5018772;28;20076;-90
2022/03/02 05:00:35;;;;;;;62.28;31.52;;;3.50;99.90;;;;;;5018987;28;20139;-91
2022/03/02 05:03:03;;;;;;;58.83;31.33;;;3.40;99.90;;;;;;5018935;28;20128;-90
2022/03/02 05:05:31;;;;;;;57.67;31.05;;;3.50;99.90;;;;;;5019044;28;20045;-90
2022/03/02 05:07:58;;;;;;;67.43;32.63;;;3.40;99.90;;;;;;5018955;28;20081;-91
2022/03/02 05:10:24;;;;;;;55.45;31.90;;;3.50;99.90;;;;;;5018725;28;20045;-91
2022/03/02 05:12:50;;;;;;;71.00;35.33;;;3.40;99.90;;;;;;5018834;28;20049;-91
2022/03/02 05:15:17;;;;;;;59.13;32.80;;;3.40;99.90;;;;;;5018829;28;20049;-90
2022/03/02 05:17:44;;;;;;;63.28;33.05;;;3.30;99.90;;;;;;5018500;28;20044;-90
2022/03/02 05:20:11;;;;;;;65.35;33.55;;;3.30;99.90;;;;;;5018513;28;20397;-90
2022/03/02 05:22:37;;;;;;;59.55;31.08;;;3.40;99.90;;;;;;5018361;28;20049;-90
2022/03/02 05:25:06;;;;;;;61.05;34.35;;;3.30;99.90;;;;;;5018381;28;20038;-94
2022/03/02 05:27:31;;;;;;;59.15;32.78;;;3.30;99.90;;;;;;5018623;28;20045;-92
2022/03/02 05:29:57;;;;;;;64.70;32.30;;;3.30;99.90;;;;;;5018450;28;20053;-90
2022/03/02 05:32:23;;;;;;;60.22;31.08;;;3.20;99.90;;;;;;5018162;28;20408;-91
2022/03/02 05:34:49;;;;;;;65.10;33.55;;;3.20;99.90;;;;;;5018052;28;20152;-91
2022/03/02 05:37:15;;;;;;;63.53;33.08;;;3.20;99.90;;;;;;5018111;28;20084;-91
2022/03/02 05:39:40;;;;;;;59.63;32.58;;;3.20;99.90;;;;;;5018105;28;20045;-90
2022/03/02 05:42:07;;;;;;;58.08;30.30;;;3.20;99.90;;;;;;5018033;28;20099;-91
2022/03/02 05:44:33;;;;;;;60.10;32.45;;;3.10;99.90;;;;;;5017994;28;20054;-90
2022/03/02 05:46:58;;;;;;;64.50;34.88;;;3.10;99.90;;;;;;5017371;28;20161;-91
2022/03/02 05:49:24;;;;;;;66.47;33.13;;;3.10;99.90;;;;;;5017976;28;20084;-90
2022/03/02 05:51:50;;;;;;;59.42;32.25;;;3.10;99.90;;;;;;5018136;28;20045;-91
2022/03/02 05:54:16;;;;;;;62.28;35.05;;;3.10;99.90;;;;;;5017838;28;20041;-91
2022/03/02 05:56:42;;;;;;;71.50;33.95;;;3.00;99.90;;;;;;5018220;28;20045;-91
2022/03/02 05:59:12;;;;;;;66.00;31.80;;;3.00;99.90;;;;;;5017781;28;20405;-91
2022/03/02 06:01:38;;;;;;;68.95;34.15;;;3.00;99.90;;;;;;5017788;28;20049;-91
2022/03/02 06:04:05;;;;;;;65.78;35.00;;;3.00;99.90;;;;;;5017989;28;20123;-90
2022/03/02 06:06:32;;;;;;;62.90;33.45;;;3.00;99.90;;;;;;5017842;28;20488;-90
2022/03/02 06:09:02;;;;;;;64.75;34.40;;;3.00;99.90;;;;;;5017615;28;20091;-90
2022/03/02 06:11:29;;;;;;;64.50;33.38;;;3.00;99.90;;;;;;5017335;28;20048;-90
2022/03/02 06:13:55;;;;;;;64.68;35.08;;;3.00;99.90;;;;;;5017315;28;20144;-91
2022/03/02 06:16:21;;;;;;;72.25;36.88;;;3.00;99.90;;;;;;5016688;28;20045;-90
2022/03/02 06:18:48;;;;;;;67.88;35.53;;;2.90;99.90;;;;;;5016731;28;20083;-91
2022/03/02 06:21:24;;;;;;;71.00;34.88;;;2.90;99.90;;;;;;5017418;28;20397;-91
2022/03/02 06:23:49;;;;;;;70.28;34.20;;;2.90;99.90;;;;;;5017246;28;20046;-91
2022/03/02 06:26:18;;;;;;;70.28;33.90;;;2.90;99.90;;;;;;5017481;28;20132;-91
2022/03/02 06:28:44;;;;;;;70.55;35.15;;;2.90;99.90;;;;;;5017206;28;20095;-91
2022/03/02 06:31:10;;;;;;;72.70;35.78;;;2.90;99.90;;;;;;5017165;28;20132;-92
2022/03/02 06:33:36;;;;;;;68.35;34.60;;;2.90;99.90;;;;;;5016845;28;20096;-91
2022/03/02 06:36:02;;;;;;;70.85;34.47;;;2.90;99.90;;;;;;5017045;28;20077;-90
2022/03/02 06:38:28;;;;;;;72.60;35.88;;;2.90;99.90;;;;;;5016933;28;20132;-90
2022/03/02 06:41:04;;;;;;;78.88;35.97;;;2.90;99.90;;;;;;5016883;28;20499;-91
2022/03/02 06:44:00;;;;;;;74.07;36.83;;;2.90;99.90;;;;;;5016827;28;20103;-90
2022/03/02 06:46:44;;;;;;;67.57;33.00;;;2.90;99.90;;;;;;5010363;28;20053;-89
2022/03/02 06:49:29;;;;;;;74.53;35.42;;;3.00;99.90;;;;;;5016427;28;20053;-89
2022/03/02 06:51:58;;;;;;;66.38;33.85;;;3.00;99.90;;;;;;5016868;28;20076;-90
2022/03/02 06:54:30;;;;;;;65.35;34.20;;;3.00;99.90;;;;;;5017685;28;20045;-91
2022/03/02 06:56:58;;;;;;;73.07;36.15;;;3.00;99.90;;;;;;5016603;28;20054;-89
2022/03/02 06:59:39;;;;;;;70.32;35.53;;;3.00;99.90;;;;;;5016630;28;20079;-90
2022/03/02 07:02:06;;;;;;;72.55;36.45;;;3.00;99.90;;;;;;5016607;28;20171;-90
2022/03/02 07:04:37;;;;;;;67.20;34.25;;;3.10;99.90;;;;;;5016436;28;20045;-89
2022/03/02 07:07:03;;;;;;;69.72;35.13;;;3.10;99.90;;;;;;5016550;28;20060;-90
2022/03/02 07:09:31;;;;;;;69.03;33.88;;;3.20;99.90;;;;;;5016334;28;20492;-89
2022/03/02 07:12:02;;;;;;;68.57;34.13;;;3.20;99.90;;;;;;5016257;28;20132;-90
2022/03/02 07:14:33;;;;;;;63.42;33.45;;;3.20;99.90;;;;;;5016041;28;20400;-89
2022/03/02 07:17:01;;;;;;;67.80;33.63;;;3.30;99.90;;;;;;5016113;28;20120;-88
2022/03/02 07:19:27;;;;;;;66.85;33.50;;;3.30;99.90;;;;;;5016403;28;20512;-89
2022/03/02 07:21:55;;;;;;;67.47;34.05;;;3.40;99.90;;;;;;5016312;28;20052;-90
2022/03/02 07:24:22;;;;;;;66.18;33.13;;;3.40;99.90;;;;;;5016249;28;20053;-90
2022/03/02 07:26:56;;;;;;;61.78;31.33;;;3.50;99.90;;;;;;5016118;28;20167;-90
2022/03/02 07:29:26;;;;;;;64.03;33.13;;;3.50;99.90;;;;;;5016437;28;20098;-92
2022/03/02 07:31:56;;;;;;;72.07;35.65;;;3.50;99.90;;;;;;5016560;28;20077;-93
2022/03/02 07:34:27;;;;;;;67.78;33.67;;;3.60;99.90;;;;;;5018583;28;20049;-94
2022/03/02 07:36:53;;;;;;;62.40;30.95;;;3.70;99.90;;;;;;5017496;28;20041;-91
2022/03/02 07:39:20;;;;;;;67.05;31.52;;;3.70;99.90;;;;;;5010280;28;20049;-84
2022/03/02 07:41:45;;;;;;;62.88;30.80;;;3.80;99.90;;;;;;4985381;28;20412;-89
2022/03/02 07:44:11;;;;;;;60.22;33.10;;;3.80;99.90;;;;;;4977391;28;20505;-91
2022/03/02 07:46:37;;;;;;;58.70;30.33;;;3.90;99.90;;;;;;4977002;28;20045;-92
2022/03/02 07:49:04;;;;;;;59.95;28.60;;;3.90;99.90;;;;;;4976775;28;20542;-92
2022/03/02 07:51:32;;;;;;;54.20;28.30;;;4.00;99.90;;;;;;4976846;28;20049;-89
2022/03/02 07:54:03;;;;;;;61.22;30.15;;;4.10;99.90;;;;;;4976675;28;20046;-91
2022/03/02 07:56:31;;;;;;;57.45;28.88;;;4.10;99.90;;;;;;4976959;28;20085;-92
2022/03/02 07:59:07;;;;;;;59.30;30.00;;;4.20;99.90;;;;;;4976666;28;20046;-91
2022/03/02 08:01:35;;;;;;;57.55;27.42;;;4.30;99.90;;;;;;4977274;28;20035;-90
2022/03/02 08:04:06;;;;;;;58.10;29.20;;;4.30;99.90;;;;;;4976833;28;20051;-82
2022/03/02 08:06:37;;;;;;;53.70;27.38;;;4.40;99.90;;;;;;4976775;28;20034;-91
2022/03/02 08:09:06;;;;;;;61.65;30.48;;;4.40;99.90;;;;;;4979355;28;20708;-96
2022/03/02 08:11:33;;;;;;;61.40;27.65;;;4.40;99.90;;;;;;4981491;28;20042;-94
2022/03/02 08:14:00;;;;;;;58.33;28.38;;;4.50;99.90;;;;;;4981598;28;20132;-95
2022/03/02 08:16:30;;;;;;;53.65;26.40;;;4.60;99.90;;;;;;4981736;28;20133;-95
2022/03/02 08:18:57;;;;;;;52.35;26.35;;;4.70;99.90;;;;;;4982435;28;20046;-92
2022/03/02 08:21:32;;;;;;;56.97;27.73;;;4.80;99.90;;;;;;4981337;28;20070;-94
2022/03/02 08:24:01;;;;;;;59.97;28.65;;;4.90;99.90;;;;;;4982132;28;20085;-96
2022/03/02 08:26:32;;;;;;;54.33;26.15;;;4.90;99.90;;;;;;4981603;28;20549;-89
2022/03/02 08:29:03;;;;;;;56.05;28.88;;;4.90;99.90;;;;;;4981430;28;20050;-94
2022/03/02 08:31:30;;;;;;;55.92;28.50;;;5.00;99.90;;;;;;4981051;28;20065;-96
2022/03/02 08:33:59;;;;;;;53.88;28.35;;;5.00;99.90;;;;;;4986688;28;20062;-93
2022/03/02 08:36:29;;;;;;;52.70;27.92;;;5.10;99.90;;;;;;4980148;28;20081;-95
2022/03/02 08:38:55;;;;;;;54.00;24.83;;;5.20;99.90;;;;;;5037033;23;20095;-95
2022/03/02 08:41:21;;;;;;;52.72;24.25;;;5.20;99.90;;;;;;5023682;28;20091;-96
2022/03/02 08:43:48;;;;;;;52.40;25.75;;;5.30;99.90;;;;;;5022475;28;20056;-96
2022/03/02 08:46:14;;;;;;;57.20;26.13;;;5.30;99.90;;;;;;5037624;23;20057;-94
2022/03/02 08:48:41;;;;;;;50.85;27.05;;;5.40;99.90;;;;;;4998855;28;20049;-93
2022/03/02 08:51:07;;;;;;;51.63;26.20;;;5.40;99.90;;;;;;4999087;28;20077;-85
2022/03/02 08:53:33;;;;;;;55.47;27.67;;;5.40;99.90;;;;;;4998312;28;20069;-84
2022/03/02 08:56:03;;;;;;;52.72;26.88;;;5.50;99.90;;;;;;4999703;28;20086;-92
2022/03/02 08:58:30;;;;;;;52.08;25.25;;;5.50;99.90;;;;;;5001777;28;20049;-95
2022/03/02 09:00:59;;;;;;;51.35;27.60;;;5.60;99.90;;;;;;5000126;28;20397;-94
2022/03/02 09:03:25;;;;;;;57.28;25.80;;;5.60;99.90;;;;;;4996434;28;20128;-94
2022/03/02 09:05:52;;;;;;;54.22;26.38;;;5.60;99.90;;;;;;4996105;28;20042;-92
2022/03/02 09:08:18;;;;;;;54.75;27.98;;;5.60;99.90;;;;;;4988384;28;20074;-93
2022/03/02 09:10:44;;;;;;;54.42;25.23;;;5.70;99.90;;;;;;4987939;28;20568;-92
2022/03/02 09:13:10;;;;;;;52.35;26.48;;;5.80;99.90;;;;;;5015088;28;20132;-93
2022/03/02 09:15:37;;;;;;;51.53;26.33;;;5.80;99.90;;;;;;5018800;28;20041;-94
2022/03/02 09:18:06;;;;;;;55.72;29.35;;;5.80;99.90;;;;;;4999494;28;20448;-94
2022/03/02 09:20:33;;;;;;;57.60;26.48;;;5.80;99.90;;;;;;5004553;28;20045;-94
2022/03/02 09:23:07;;;;;;;52.60;27.33;;;5.90;99.90;;;;;;5013389;28;20053;-93
2022/03/02 09:25:37;;;;;;;53.55;26.85;;;5.90;99.90;;;;;;4999032;28;20046;-96
2022/03/02 09:28:04;;;;;;;49.70;27.48;;;6.00;99.90;;;;;;5005510;28;20043;-95
2022/03/02 09:30:30;;;;;;;54.47;25.98;;;6.00;99.90;;;;;;5019219;28;20045;-93
2022/03/02 09:32:59;;;;;;;53.15;26.75;;;6.10;99.90;;;;;;5018337;28;20053;-96
2022/03/02 09:35:36;;;;;;;54.00;26.70;;;6.20;99.90;;;;;;5001880;28;20050;-96
2022/03/02 09:38:02;;;;;;;49.85;26.05;;;6.20;99.90;;;;;;4990016;28;20061;-96
2022/03/02 09:40:30;;;;;;;51.15;25.20;;;6.10;99.90;;;;;;4995415;28;20042;-93
2022/03/02 09:43:02;;;;;;;50.42;25.77;;;6.30;99.90;;;;;;4999294;28;20057;-92
2022/03/02 09:45:30;;;;;;;55.15;28.30;;;6.40;99.90;;;;;;4998686;28;20054;-95
2022/03/02 09:48:04;;;;;;;52.17;26.65;;;6.40;99.90;;;;;;5000524;28;20053;-93
2022/03/02 09:50:33;;;;;;;54.17;27.05;;;6.40;99.90;;;;;;4999434;28;20132;-91
2022/03/02 09:53:08;;;;;;;55.75;28.35;;;6.50;99.90;;;;;;5003293;28;20085;-95
2022/03/02 09:55:36;;;;;;;55.47;27.88;;;6.70;99.90;;;;;;5004322;28;20046;-95
2022/03/02 09:58:02;;;;;;;54.53;29.55;;;6.70;99.90;;;;;;5000264;28;20048;-95
2022/03/02 10:00:29;;;;;;;52.00;26.35;;;6.80;99.90;;;;;;4999852;28;20100;-96
2022/03/02 10:03:10;;;;;;;55.53;30.35;;;7.00;99.90;;;;;;5000331;28;20048;-96
2022/03/02 10:05:39;;;;;;;56.95;28.30;;;6.80;99.90;;;;;;5001373;28;20037;-93
2022/03/02 10:08:07;;;;;;;53.33;29.33;;;6.60;99.90;;;;;;5014250;28;20045;-93
2022/03/02 10:10:37;;;;;;;53.95;26.75;;;6.60;99.90;;;;;;5021557;28;20049;-92
2022/03/02 10:13:08;;;;;;;53.78;28.70;;;6.40;99.90;;;;;;4995656;28;20042;-93
2022/03/02 10:15:35;;;;;;;53.78;28.38;;;6.50;99.90;;;;;;5003403;28;20074;-93
2022/03/02 10:18:02;;;;;;;52.00;30.80;;;6.40;99.90;;;;;;4998173;28;20046;-92
2022/03/02 10:20:30;;;;;;;55.25;28.73;;;6.40;99.90;;;;;;4997950;28;20049;-95
2022/03/02 10:23:23;;;;;;;48.85;26.35;;;6.60;99.90;;;;;;5000293;28;20139;-95
2022/03/02 10:26:08;;;;;;;50.60;28.20;;;6.60;99.90;;;;;;4997926;28;20049;-94
2022/03/02 10:28:50;;;;;;;51.67;28.05;;;6.60;99.90;;;;;;4978407;28;20047;-95
2022/03/02 10:31:41;;;;;;;52.70;28.55;;;6.60;99.90;;;;;;4995742;28;20046;-96
2022/03/02 10:34:19;;;;;;;54.40;27.40;;;6.60;99.90;;;;;;4978894;28;20042;-93
2022/03/02 10:36:50;;;;;;;49.85;27.58;;;6.70;99.90;;;;;;4997002;28;20041;-92
2022/03/02 10:39:49;;;;;;;53.08;28.45;;;6.70;99.90;;;;;;5002421;28;20092;-96
2022/03/02 10:42:21;;;;;;;58.67;30.92;;;6.70;99.90;;;;;;5000854;28;20046;-96
2022/03/02 10:45:05;;;;;;;51.80;27.30;;;6.60;99.90;;;;;;4982027;28;20054;-94
2022/03/02 10:47:35;;;;;;;51.75;27.60;;;6.70;99.90;;;;;;5001544;28;20133;-89
2022/03/02 10:50:03;;;;;;;52.58;30.45;;;6.70;99.90;;;;;;4998749;28;20426;-95
2022/03/02 10:52:32;;;;;;;53.13;29.52;;;6.90;99.90;;;;;;4998172;28;20046;-91
2022/03/02 10:55:03;;;;;;;55.55;32.05;;;6.80;99.90;;;;;;4996728;28;20092;-96
2022/03/02 10:57:32;;;;;;;46.28;26.77;;;6.70;99.90;;;;;;4996865;28;20058;-96
2022/03/02 11:00:12;;;;;;;51.50;26.75;;;6.90;99.90;;;;;;4997464;28;20048;-93
2022/03/02 11:02:42;;;;;;;49.47;27.90;;;6.90;99.90;;;;;;4997231;28;20501;-93
2022/03/02 11:05:13;;;;;;;48.40;27.05;;;7.00;99.90;;;;;;4997293;28;20076;-94
2022/03/02 11:07:40;;;;;;;53.97;29.80;;;7.10;99.90;;;;;;4996771;28;20057;-92
2022/03/02 11:10:09;;;;;;;53.00;29.65;;;7.20;99.90;;;;;;4996911;28;20044;-90
2022/03/02 11:12:37;;;;;;;50.63;28.58;;;7.00;99.90;;;;;;4996906;28;20084;-93
2022/03/02 11:15:05;;;;;;;48.97;28.60;;;7.10;99.90;;;;;;4996817;28;20092;-91
2022/03/02 11:17:31;;;;;;;48.08;28.80;;;7.30;99.90;;;;;;4996351;28;20046;-90
2022/03/02 11:19:58;;;;;;;53.10;28.85;;;7.20;99.90;;;;;;5002169;28;20041;-90
2022/03/02 11:22:26;;;;;;;50.50;28.30;;;7.00;99.90;;;;;;4997217;28;20046;-92
2022/03/02 11:24:57;;;;;;;46.45;25.05;;;7.30;99.90;;;;;;4996488;28;20050;-93
2022/03/02 11:27:40;;;;;;;49.67;26.60;;;7.30;99.90;;;;;;4996054;28;20125;-93
2022/03/02 11:30:17;;;;;;;49.75;28.25;;;7.40;99.90;;;;;;4996458;28;20053;-90
2022/03/02 11:32:47;;;;;;;53.08;30.30;;;7.30;99.90;;;;;;4996317;28;20070;-93
2022/03/02 11:35:17;;;;;;;49.25;29.60;;;7.20;99.90;;;;;;4999997;28;20101;-95
2022/03/02 11:37:55;;;;;;;;;;;7.10;99.90;;;;;;5003628;28;20042;-96
2022/03/02 11:40:42;;;;;;;49.83;28.08;;;7.10;99.90;;;;;;5006059;28;19905;-96
2022/03/02 11:43:19;;;;;;;49.97;27.17;;;7.10;99.90;;;;;;5004265;28;20045;-96
2022/03/02 11:45:46;;;;;;;52.85;26.42;;;7.10;99.90;;;;;;5000016;28;20066;-94
2022/03/02 11:48:15;;;;;;;50.00;28.50;;;7.30;99.90;;;;;;4999150;28;20486;-93
2022/03/02 11:51:06;;;;;;;52.28;29.80;;;7.30;99.90;;;;;;5002484;28;20052;-82
2022/03/02 11:53:34;;;;;;;56.53;31.17;;;7.00;99.90;;;;;;4998228;28;20141;-90
2022/03/02 11:56:01;;;;;;;50.90;28.35;;;7.10;99.90;;;;;;4999805;28;20046;-93
2022/03/02 11:58:27;;;;;;;52.20;28.70;;;7.20;99.90;;;;;;4997660;28;20042;-94
2022/03/02 12:01:04;;;;;;;54.85;30.75;;;7.30;99.90;;;;;;4996981;28;20100;-91
2022/03/02 12:03:30;;;;;;;52.15;30.58;;;7.10;99.90;;;;;;5000212;28;20076;-95
2022/03/02 12:06:07;;;;;;;50.38;30.80;;;7.00;99.90;;;;;;4998395;28;20049;-96
2022/03/02 12:08:33;;;;;;;50.15;28.05;;;7.00;99.90;;;;;;4997523;28;20073;-96
2022/03/02 12:11:08;;;;;;;47.55;28.48;;;6.90;99.90;;;;;;5000858;28;20081;-90
2022/03/02 12:13:33;;;;;;;52.28;27.45;;;7.20;99.90;;;;;;4996713;28;20052;-89
2022/03/02 12:15:59;;;;;;;56.97;31.17;;;7.20;99.90;;;;;;4995693;28;20046;-90
2022/03/02 12:18:25;;;;;;;52.33;30.25;;;7.30;99.90;;;;;;4996289;28;20040;-89
2022/03/02 12:20:53;;;;;;;49.60;28.05;;;7.40;99.90;;;;;;4995972;28;20050;-90
2022/03/02 12:23:24;;;;;;;53.60;30.27;;;7.40;99.90;;;;;;4996940;28;20056;-89
2022/03/02 12:25:51;;;;;;;50.90;30.70;;;7.30;99.90;;;;;;4996785;28;20049;-94
2022/03/02 12:28:18;;;;;;;52.53;29.35;;;7.30;99.90;;;;;;4997225;28;20555;-89
2022/03/02 12:30:44;;;;;;;56.97;31.73;;;7.40;99.90;;;;;;4996020;28;20054;-92
2022/03/02 12:33:10;;;;;;;50.35;29.08;;;7.20;99.90;;;;;;4996073;28;20107;-92
2022/03/02 12:35:36;;;;;;;49.78;28.10;;;7.40;99.90;;;;;;4996020;28;20054;-92
2022/03/02 12:38:07;;;;;;;48.70;29.05;;;7.40;99.90;;;;;;4996155;28;20042;-93
2022/03/02 12:40:39;;;;;;;48.15;28.25;;;7.30;99.90;;;;;;4995954;28;20177;-92
2022/03/02 12:43:07;;;;;;;51.08;30.80;;;7.40;99.90;;;;;;4995852;28;20038;-83